createdAt,value
2023-05-05T00:01:53.324Z,81.87
2023-05-05T00:04:22.765Z,82.64
2023-05-05T00:06:50.647Z,84.33
2023-05-05T00:09:17.830Z,83.70
2023-05-05T00:11:45.222Z,84.43
2023-05-05T00:14:12.107Z,84.93
2023-05-05T00:16:39.139Z,85.22
2023-05-05T00:19:06.803Z,85.06
2023-05-05T00:21:33.768Z,84.85
2023-05-05T00:24:00.795Z,85.09
2023-05-05T00:26:27.739Z,85.91
2023-05-05T00:28:54.987Z,85.87
2023-05-05T00:31:21.815Z,85.96
2023-05-05T00:33:49.157Z,87.04
2023-05-05T00:36:16.031Z,87.39
2023-05-05T00:38:43.717Z,87.99
2023-05-05T00:41:10.582Z,88.07
2023-05-05T00:43:37.427Z,89.65
2023-05-05T00:46:14.409Z,88.51
2023-05-05T00:48:42.114Z,87.60
2023-05-05T00:51:10.379Z,87.64
2023-05-05T00:53:39.782Z,87.69
2023-05-05T00:56:07.140Z,88.27
2023-05-05T00:58:34.599Z,88.53
2023-05-05T01:01:01.590Z,88.11
2023-05-05T01:03:28.925Z,88.29
2023-05-05T01:06:10.635Z,88.45
2023-05-05T01:09:02.200Z,88.70
2023-05-05T01:11:38.047Z,88.61
2023-05-05T01:14:21.581Z,88.29
2023-05-05T01:16:58.324Z,88.42
2023-05-05T01:19:34.026Z,88.23
2023-05-05T01:22:03.957Z,88.92
2023-05-05T01:24:43.088Z,89.13
2023-05-05T01:27:39.740Z,90.10
2023-05-05T01:30:27.664Z,89.81
2023-05-05T01:33:00.883Z,90.93
2023-05-05T01:35:31.885Z,91.26
2023-05-05T01:38:16.803Z,91.10
2023-05-05T01:40:48.914Z,91.80
2023-05-05T01:43:19.594Z,91.92
2023-05-05T01:45:48.171Z,91.96
2023-05-05T01:48:18.427Z,92.47
2023-05-05T01:50:48.415Z,91.81
2023-05-05T01:53:17.664Z,92.10
2023-05-05T01:55:46.913Z,92.27
2023-05-05T01:58:16.061Z,91.82
2023-05-05T02:00:44.599Z,92.32
2023-05-05T02:03:15.474Z,92.08
2023-05-05T02:05:44.624Z,91.90
2023-05-05T02:08:12.294Z,92.64
2023-05-05T02:10:43.592Z,92.36
2023-05-05T02:13:13.101Z,93.25
2023-05-05T02:15:42.138Z,93.38
2023-05-05T02:18:10.057Z,92.92
2023-05-05T02:20:39.527Z,93.24
2023-05-05T02:23:08.081Z,93.23
2023-05-05T02:25:45.385Z,93.30
2023-05-05T02:28:18.511Z,93.39
2023-05-05T02:30:51.455Z,93.31
2023-05-05T02:33:22.071Z,93.62
2023-05-05T02:35:52.082Z,93.52
2023-05-05T02:38:23.915Z,93.72
2023-05-05T02:40:53.284Z,94.12
2023-05-05T02:43:23.648Z,94.15
2023-05-05T02:45:50.772Z,94.21
2023-05-05T02:48:18.036Z,94.35
2023-05-05T02:50:44.973Z,94.00
2023-05-05T02:53:12.331Z,94.29
2023-05-05T02:55:53.769Z,94.36
2023-05-05T02:58:29.172Z,94.40
2023-05-05T03:01:26.889Z,94.35
2023-05-05T03:04:17.627Z,94.22
2023-05-05T03:06:49.160Z,93.78
2023-05-05T03:09:25.766Z,93.74
2023-05-05T03:12:04.592Z,94.08
2023-05-05T03:14:37.203Z,94.05
2023-05-05T03:17:05.541Z,94.10
2023-05-05T03:19:34.550Z,93.79
2023-05-05T03:22:04.311Z,93.81
2023-05-05T03:24:31.150Z,93.90
2023-05-05T03:26:57.967Z,93.70
2023-05-05T03:29:25.518Z,93.63
2023-05-05T03:31:52.665Z,93.53
2023-05-05T03:34:19.640Z,93.72
2023-05-05T03:36:46.613Z,93.92
2023-05-05T03:39:13.475Z,93.96
2023-05-05T03:41:40.437Z,93.70
2023-05-05T03:44:07.459Z,93.76
2023-05-05T03:46:34.390Z,94.14
2023-05-05T03:49:01.295Z,94.30
2023-05-05T03:51:28.294Z,94.41
2023-05-05T03:53:55.451Z,94.13
2023-05-05T03:56:22.374Z,93.87
2023-05-05T03:58:49.330Z,94.21
2023-05-05T04:01:16.362Z,94.67
2023-05-05T04:03:43.304Z,94.45
2023-05-05T04:06:10.294Z,94.28
2023-05-05T04:08:37.264Z,94.62
2023-05-05T04:11:04.160Z,94.31
2023-05-05T04:13:31.171Z,94.44
2023-05-05T04:15:59.782Z,94.27
2023-05-05T04:18:26.782Z,94.08
2023-05-05T04:20:53.690Z,93.73
2023-05-05T04:23:20.721Z,93.15
2023-05-05T04:25:48.130Z,93.38
2023-05-05T04:28:15.110Z,94.11
2023-05-05T04:30:42.058Z,93.63
2023-05-05T04:33:08.969Z,93.65
2023-05-05T04:35:36.028Z,94.06
2023-05-05T04:38:02.865Z,94.14
2023-05-05T04:40:29.961Z,93.86
2023-05-05T04:42:56.854Z,93.39
2023-05-05T04:45:23.737Z,93.27
2023-05-05T04:47:50.920Z,93.07
2023-05-05T04:50:18.046Z,93.18
2023-05-05T04:52:45.127Z,92.93
2023-05-05T04:55:12.205Z,92.96
2023-05-05T04:57:39.250Z,92.81
2023-05-05T05:00:07.875Z,92.53
2023-05-05T05:02:35.902Z,92.01
2023-05-05T05:05:02.878Z,91.81
2023-05-05T05:07:29.812Z,91.75
2023-05-05T05:09:56.741Z,91.46
2023-05-05T05:12:23.991Z,91.12
2023-05-05T05:14:51.870Z,90.63
2023-05-05T05:17:20.670Z,90.41
2023-05-05T05:19:47.562Z,90.68
2023-05-05T05:22:14.770Z,90.33
2023-05-05T05:24:42.391Z,89.84
2023-05-05T05:27:10.291Z,89.78
2023-05-05T05:29:37.378Z,89.90
2023-05-05T05:32:04.478Z,89.46
2023-05-05T05:34:31.686Z,89.49
2023-05-05T05:36:58.626Z,89.21
2023-05-05T05:39:25.512Z,89.42
2023-05-05T05:41:52.695Z,89.17
2023-05-05T05:44:19.884Z,89.47
2023-05-05T05:46:46.755Z,88.71
2023-05-05T05:49:14.136Z,88.20
2023-05-05T05:51:41.433Z,88.04
2023-05-05T05:54:08.465Z,87.75
2023-05-05T05:56:35.395Z,86.32
2023-05-05T05:59:04.578Z,85.33
2023-05-05T06:01:31.734Z,85.26
2023-05-05T06:03:58.766Z,84.29
2023-05-05T06:06:25.750Z,84.00
2023-05-05T06:08:53.425Z,82.82
2023-05-05T06:11:20.675Z,78.87
2023-05-05T06:13:47.489Z,79.97
2023-05-05T06:16:14.396Z,79.61
2023-05-05T06:18:41.425Z,79.72
2023-05-05T06:21:08.465Z,78.99
2023-05-05T06:23:35.988Z,78.41
2023-05-05T06:26:03.475Z,77.59
2023-05-05T06:28:30.497Z,78.39
2023-05-05T06:30:57.335Z,77.20
2023-05-05T06:33:24.737Z,76.85
2023-05-05T06:35:52.438Z,72.31
2023-05-05T06:38:20.128Z,73.59
2023-05-05T06:40:50.241Z,67.15
2023-05-05T06:43:18.056Z,69.47
2023-05-05T06:45:45.500Z,69.53
2023-05-05T06:48:12.652Z,67.43
2023-05-05T06:50:40.093Z,68.65
2023-05-05T06:53:07.077Z,68.99
2023-05-05T06:55:34.044Z,69.57
2023-05-05T06:58:01.024Z,68.91
2023-05-05T07:00:39.765Z,67.98
2023-05-05T07:03:07.125Z,65.32
2023-05-05T07:05:34.174Z,64.90
2023-05-05T07:08:01.522Z,66.41
2023-05-05T07:10:28.832Z,66.47
2023-05-05T07:12:55.958Z,66.50
2023-05-05T07:15:27.701Z,62.57
2023-05-05T07:17:56.673Z,62.91
2023-05-05T07:20:24.325Z,60.64
2023-05-05T07:22:51.462Z,61.78
2023-05-05T07:25:18.637Z,60.07
2023-05-05T07:27:45.955Z,60.50
2023-05-05T07:30:16.517Z,60.77
2023-05-05T07:32:44.409Z,60.32
2023-05-05T07:35:11.552Z,60.68
2023-05-05T07:37:38.462Z,60.37
2023-05-05T07:40:06.587Z,60.12
2023-05-05T07:42:33.734Z,60.72
2023-05-05T07:45:00.856Z,60.87
2023-05-05T07:47:31.276Z,61.12
2023-05-05T07:49:58.367Z,61.20
2023-05-05T07:52:43.672Z,59.81
2023-05-05T07:55:13.189Z,58.51
2023-05-05T07:57:40.362Z,59.28
2023-05-05T08:00:08.150Z,58.41
2023-05-05T08:02:35.545Z,57.35
2023-05-05T08:05:02.530Z,57.24
2023-05-05T08:07:29.397Z,56.68
2023-05-05T08:09:56.348Z,57.01
2023-05-05T08:12:23.410Z,56.62
2023-05-05T08:14:50.904Z,57.03
2023-05-05T08:17:17.883Z,58.00
2023-05-05T08:19:44.857Z,56.21
2023-05-05T08:22:11.979Z,55.02
2023-05-05T08:24:38.923Z,56.62
2023-05-05T08:27:05.930Z,54.48
2023-05-05T08:29:32.921Z,53.96
2023-05-05T08:31:59.874Z,53.98
2023-05-05T08:34:26.907Z,53.73
2023-05-05T08:36:53.916Z,53.31
2023-05-05T08:39:21.108Z,52.26
2023-05-05T08:41:48.470Z,49.39
2023-05-05T08:44:15.723Z,48.44
2023-05-05T08:46:42.968Z,47.21
2023-05-05T08:49:15.287Z,47.38
2023-05-05T08:51:43.313Z,46.68
2023-05-05T08:54:18.041Z,45.40
2023-05-05T08:56:47.090Z,43.94
2023-05-05T08:59:15.834Z,43.43
2023-05-05T09:01:45.133Z,42.76
2023-05-05T09:04:12.656Z,41.12
2023-05-05T09:06:49.207Z,40.20
2023-05-05T09:09:20.276Z,38.39
2023-05-05T09:11:47.903Z,41.08
2023-05-05T09:16:59.768Z,40.56
2023-05-05T09:19:26.763Z,40.62
2023-05-05T09:22:13.947Z,40.90
2023-05-05T09:24:55.312Z,38.29
2023-05-05T09:27:23.505Z,39.86
2023-05-05T09:29:51.158Z,40.56
2023-05-05T09:32:18.653Z,41.10
2023-05-05T09:34:58.100Z,40.11
2023-05-05T09:37:31.915Z,38.54
2023-05-05T09:40:01.239Z,37.99
2023-05-05T09:42:28.351Z,37.77
2023-05-05T09:44:56.834Z,39.35
2023-05-05T09:47:35.067Z,38.30
2023-05-05T09:50:02.725Z,38.16
2023-05-05T09:52:30.866Z,37.33
2023-05-05T09:54:57.893Z,36.59
2023-05-05T09:57:30.332Z,36.06
2023-05-05T10:00:01.823Z,35.18
2023-05-05T10:02:36.775Z,34.83
2023-05-05T10:05:08.467Z,35.57
2023-05-05T10:07:37.003Z,35.81
2023-05-05T10:10:09.377Z,36.15
2023-05-05T10:12:37.835Z,33.85
2023-05-05T10:15:06.741Z,35.10
2023-05-05T10:17:38.206Z,34.14
2023-05-05T10:20:10.669Z,34.57
2023-05-05T10:22:39.599Z,33.05
2023-05-05T10:25:11.333Z,33.16
2023-05-05T10:27:44.912Z,33.40
2023-05-05T10:30:24.565Z,32.28
2023-05-05T10:33:13.106Z,32.53
2023-05-05T10:35:45.838Z,33.53
2023-05-05T10:38:13.259Z,30.16
2023-05-05T10:40:45.628Z,30.47
2023-05-05T10:43:14.641Z,30.27
2023-05-05T10:45:43.036Z,29.73
2023-05-05T10:48:18.912Z,29.96
2023-05-05T10:50:56.871Z,30.69
2023-05-05T10:53:28.870Z,30.29
2023-05-05T10:56:17.385Z,30.25
2023-05-05T10:58:59.244Z,30.23
2023-05-05T11:01:30.863Z,30.37
2023-05-05T11:04:17.212Z,30.70
2023-05-05T11:07:11.850Z,31.13
2023-05-05T11:10:04.324Z,31.09
2023-05-05T11:12:32.792Z,28.63
2023-05-05T11:15:27.619Z,28.34
2023-05-05T11:17:56.298Z,29.88
2023-05-05T11:20:48.876Z,31.30
2023-05-05T11:23:22.737Z,29.04
2023-05-05T11:25:51.531Z,30.16
2023-05-05T11:28:19.990Z,30.71
2023-05-05T11:30:56.426Z,30.33
2023-05-05T11:33:31.090Z,29.19
2023-05-05T11:36:00.360Z,28.57
2023-05-05T11:38:36.604Z,28.74
2023-05-05T11:41:09.548Z,27.69
2023-05-05T11:43:36.756Z,28.92
2023-05-05T11:46:13.706Z,28.20
2023-05-05T11:48:52.864Z,27.85
2023-05-05T11:51:19.851Z,26.89
2023-05-05T11:53:48.443Z,26.56
2023-05-05T11:56:19.359Z,26.82
2023-05-05T11:58:46.991Z,25.84
2023-05-05T12:01:14.955Z,26.59
2023-05-05T12:03:42.462Z,25.92
2023-05-05T12:06:09.382Z,26.53
2023-05-05T12:08:40.999Z,25.67
2023-05-05T12:11:10.172Z,25.26
2023-05-05T12:13:37.716Z,25.69
2023-05-05T12:16:11.195Z,24.94
2023-05-05T12:18:38.889Z,25.00
2023-05-05T12:21:19.390Z,24.89
2023-05-05T12:23:46.903Z,24.55
2023-05-05T12:26:27.972Z,25.34
2023-05-05T12:28:56.319Z,23.46
2023-05-05T12:31:23.501Z,25.74
2023-05-05T12:33:50.833Z,26.30
2023-05-05T12:36:18.089Z,25.66
2023-05-05T12:38:47.871Z,26.21
2023-05-05T12:41:19.774Z,25.94
2023-05-05T12:43:47.718Z,25.95
2023-05-05T12:46:14.786Z,26.81
2023-05-05T12:48:48.112Z,27.10
2023-05-05T12:51:20.859Z,27.49
2023-05-05T12:53:49.897Z,27.12
2023-05-05T12:56:42.332Z,26.91
2023-05-05T12:59:11.609Z,25.87
2023-05-05T13:01:52.560Z,27.66
2023-05-05T13:04:21.068Z,27.67
2023-05-05T13:06:49.678Z,26.34
2023-05-05T13:09:34.016Z,27.64
2023-05-05T13:12:03.146Z,26.70
2023-05-05T13:14:31.975Z,27.04
2023-05-05T13:16:59.494Z,26.72
2023-05-05T13:19:27.604Z,28.46
2023-05-05T13:21:55.692Z,27.20
2023-05-05T13:24:34.436Z,28.12
2023-05-05T13:27:05.740Z,27.76
2023-05-05T13:29:33.655Z,25.81
2023-05-05T13:32:01.036Z,25.01
2023-05-05T13:34:28.337Z,24.02
2023-05-05T13:36:55.337Z,23.93
2023-05-05T13:39:22.715Z,24.04
2023-05-05T13:41:49.675Z,23.82
2023-05-05T13:44:16.756Z,23.59
2023-05-05T13:46:44.342Z,25.76
2023-05-05T13:49:11.331Z,24.28
2023-05-05T13:51:39.054Z,23.74
2023-05-05T13:54:07.079Z,22.85
2023-05-05T13:56:34.687Z,23.02
2023-05-05T13:59:02.524Z,23.21
2023-05-05T14:01:30.316Z,23.77
2023-05-05T14:03:57.989Z,24.71
2023-05-05T14:06:26.082Z,24.10
2023-05-05T14:08:53.541Z,22.99
2023-05-05T14:11:20.719Z,21.73
2023-05-05T14:13:48.170Z,22.76
2023-05-05T14:16:15.311Z,22.59
2023-05-05T14:18:43.222Z,22.99
2023-05-05T14:21:10.613Z,22.78
2023-05-05T14:23:37.556Z,22.38
2023-05-05T14:26:04.432Z,21.61
2023-05-05T14:28:44.558Z,21.26
2023-05-05T14:31:11.611Z,22.09
2023-05-05T14:33:38.428Z,22.26
2023-05-05T14:36:05.865Z,22.03
2023-05-05T14:38:32.881Z,22.09
2023-05-05T14:41:00.131Z,21.93
2023-05-05T14:43:27.087Z,21.82
2023-05-05T14:45:54.090Z,21.03
2023-05-05T14:48:22.487Z,20.98
2023-05-05T14:50:50.084Z,20.88
2023-05-05T14:53:18.984Z,20.69
2023-05-05T14:55:46.172Z,20.74
2023-05-05T14:58:13.117Z,21.28
2023-05-05T15:00:39.958Z,21.33
2023-05-05T15:03:07.141Z,21.02
2023-05-05T15:05:34.285Z,21.28
2023-05-05T15:08:01.192Z,20.88
2023-05-05T15:10:28.193Z,21.38
2023-05-05T15:12:55.114Z,21.16
2023-05-05T15:15:22.391Z,20.69
2023-05-05T15:17:49.266Z,20.67
2023-05-05T15:20:16.263Z,23.33
2023-05-05T15:22:43.098Z,22.36
2023-05-05T15:25:12.409Z,21.75
2023-05-05T15:27:40.596Z,21.36
2023-05-05T15:30:07.970Z,21.36
2023-05-05T15:32:34.973Z,22.14
2023-05-05T15:35:01.980Z,22.00
2023-05-05T15:37:29.071Z,22.48
2023-05-05T15:39:56.487Z,22.60
2023-05-05T15:42:23.481Z,22.72
2023-05-05T15:44:51.281Z,22.88
2023-05-05T15:47:18.696Z,24.17
2023-05-05T15:49:45.622Z,25.14
2023-05-05T15:52:12.900Z,25.83
2023-05-05T15:54:39.911Z,26.28
2023-05-05T15:57:06.870Z,26.19
2023-05-05T15:59:41.394Z,27.10
2023-05-05T16:02:08.341Z,28.13
2023-05-05T16:04:35.746Z,27.68
2023-05-05T16:07:03.413Z,29.41
2023-05-05T16:09:30.487Z,29.87
2023-05-05T16:11:57.413Z,28.90
2023-05-05T16:14:24.704Z,29.25
2023-05-05T16:16:51.558Z,28.84
2023-05-05T16:19:18.735Z,29.79
2023-05-05T16:21:45.757Z,29.36
2023-05-05T16:24:16.516Z,29.98
2023-05-05T16:26:43.737Z,29.37
2023-05-05T16:29:11.509Z,28.92
2023-05-05T16:31:38.662Z,28.55
2023-05-05T16:34:05.780Z,27.99
2023-05-05T16:36:32.729Z,27.86
2023-05-05T16:38:59.565Z,28.19
2023-05-05T16:41:26.856Z,28.05
2023-05-05T16:43:53.896Z,27.96
2023-05-05T16:46:21.105Z,28.25
2023-05-05T16:48:47.983Z,28.69
2023-05-05T16:51:14.836Z,29.22
2023-05-05T16:53:41.856Z,29.13
2023-05-05T16:56:11.825Z,29.41
2023-05-05T16:58:39.893Z,29.96
2023-05-05T17:01:06.965Z,30.79
2023-05-05T17:03:33.855Z,31.53
2023-05-05T17:06:00.842Z,31.02
2023-05-05T17:08:27.885Z,32.19
2023-05-05T17:10:54.771Z,33.08
2023-05-05T17:13:23.516Z,34.16
2023-05-05T17:15:50.944Z,33.83
2023-05-05T17:18:21.148Z,33.59
2023-05-05T17:20:49.975Z,33.97
2023-05-05T17:23:16.969Z,34.51
2023-05-05T17:25:43.851Z,34.87
2023-05-05T17:28:11.144Z,35.40
2023-05-05T17:30:42.387Z,36.13
2023-05-05T17:33:09.284Z,36.95
2023-05-05T17:35:37.176Z,37.99
2023-05-05T17:38:04.025Z,38.22
2023-05-05T17:40:30.986Z,39.19
2023-05-05T17:42:57.818Z,40.10
2023-05-05T17:45:24.691Z,40.16
2023-05-05T17:47:51.646Z,40.73
2023-05-05T17:50:18.788Z,40.99
2023-05-05T17:52:46.556Z,42.12
2023-05-05T17:55:13.597Z,42.35
2023-05-05T17:57:40.551Z,43.37
2023-05-05T18:00:09.028Z,44.05
2023-05-05T18:02:37.251Z,43.80
2023-05-05T18:05:04.454Z,45.51
2023-05-05T18:07:33.543Z,46.68
2023-05-05T18:10:00.504Z,47.02
2023-05-05T18:12:27.421Z,47.71
2023-05-05T18:14:54.243Z,47.79
2023-05-05T18:17:21.258Z,48.71
2023-05-05T18:19:49.220Z,49.52
2023-05-05T18:22:16.989Z,50.64
2023-05-05T18:24:44.091Z,51.17
2023-05-05T18:27:10.959Z,52.59
2023-05-05T18:29:37.906Z,52.38
2023-05-05T18:32:07.932Z,54.26
2023-05-05T18:34:34.933Z,54.88
2023-05-05T18:37:02.131Z,56.30
2023-05-05T18:39:29.160Z,56.21
2023-05-05T18:41:56.200Z,57.67
2023-05-05T18:44:23.085Z,57.52
2023-05-05T18:46:49.994Z,57.74
2023-05-05T18:49:17.205Z,58.08
2023-05-05T18:51:44.089Z,58.81
2023-05-05T18:54:11.212Z,59.53
2023-05-05T18:56:38.150Z,59.99
2023-05-05T18:59:05.093Z,59.86
2023-05-05T19:01:32.959Z,60.55
2023-05-05T19:03:59.935Z,60.73
2023-05-05T19:06:27.431Z,62.42
2023-05-05T19:08:55.484Z,63.19
2023-05-05T19:11:23.379Z,62.93
2023-05-05T19:13:50.390Z,63.09
2023-05-05T19:16:17.836Z,62.77
2023-05-05T19:18:44.875Z,65.30
2023-05-05T19:21:12.166Z,63.90
2023-05-05T19:23:39.538Z,64.76
2023-05-05T19:26:06.913Z,64.91
2023-05-05T19:28:33.924Z,65.30
2023-05-05T19:31:00.916Z,66.01
2023-05-05T19:33:28.632Z,66.03
2023-05-05T19:35:55.705Z,67.30
2023-05-05T19:38:23.018Z,67.99
2023-05-05T19:40:50.429Z,68.27
2023-05-05T19:43:17.383Z,67.45
2023-05-05T19:45:44.401Z,66.44
2023-05-05T19:48:11.552Z,67.41
2023-05-05T19:50:39.429Z,68.02
2023-05-05T19:53:06.606Z,68.21
2023-05-05T19:55:33.649Z,68.42
2023-05-05T19:58:01.099Z,67.84
2023-05-05T20:00:28.087Z,68.09
2023-05-05T20:02:55.028Z,68.14
2023-05-05T20:05:22.174Z,69.26
2023-05-05T20:07:50.486Z,70.33
2023-05-05T20:10:17.972Z,70.29
2023-05-05T20:12:49.015Z,70.81
2023-05-05T20:15:19.769Z,71.06
2023-05-05T20:17:47.889Z,71.32
2023-05-05T20:20:24.003Z,71.57
2023-05-05T20:22:50.969Z,71.87
2023-05-05T20:25:17.998Z,71.83
2023-05-05T20:27:45.869Z,72.06
2023-05-05T20:30:13.272Z,72.14
2023-05-05T20:32:41.523Z,72.79
2023-05-05T20:35:09.155Z,73.46
2023-05-05T20:37:36.018Z,73.49
2023-05-05T20:40:03.881Z,73.82
2023-05-05T20:42:30.840Z,74.02
2023-05-05T20:44:57.767Z,73.78
2023-05-05T20:47:24.946Z,74.00
2023-05-05T20:49:52.513Z,74.73
2023-05-05T20:52:19.705Z,74.54
2023-05-05T20:54:46.587Z,75.16
2023-05-05T20:57:13.510Z,75.21
2023-05-05T20:59:40.421Z,75.07
2023-05-05T21:02:07.523Z,76.66
2023-05-05T21:04:34.551Z,76.38
2023-05-05T21:07:01.493Z,76.66
2023-05-05T21:09:29.001Z,76.11
2023-05-05T21:11:56.023Z,76.82
2023-05-05T21:14:23.807Z,77.60
2023-05-05T21:16:50.765Z,77.92
2023-05-05T21:19:17.719Z,78.66
2023-05-05T21:21:44.641Z,78.29
2023-05-05T21:24:13.101Z,78.10
2023-05-05T21:26:44.301Z,78.59
2023-05-05T21:29:11.648Z,78.93
2023-05-05T21:31:38.630Z,79.33
2023-05-05T21:34:05.570Z,79.64
2023-05-05T21:36:34.025Z,80.67
2023-05-05T21:39:01.229Z,80.38
2023-05-05T21:41:28.423Z,80.12
2023-05-05T21:43:55.793Z,80.29
2023-05-05T21:46:22.831Z,80.42
2023-05-05T21:48:49.806Z,80.81
2023-05-05T21:51:17.403Z,81.17
2023-05-05T21:53:44.430Z,81.05
2023-05-05T21:56:11.460Z,81.43
2023-05-05T21:58:38.417Z,81.44
2023-05-05T22:01:05.467Z,81.35
2023-05-05T22:03:34.124Z,81.69
2023-05-05T22:06:01.195Z,82.92
2023-05-05T22:08:28.097Z,83.50
2023-05-05T22:10:54.950Z,83.34
2023-05-05T22:13:21.878Z,83.56
2023-05-05T22:15:48.947Z,83.61
2023-05-05T22:18:16.037Z,83.61
2023-05-05T22:20:43.371Z,83.65
2023-05-05T22:23:10.381Z,84.13
2023-05-05T22:25:37.380Z,84.57
2023-05-05T22:28:04.791Z,85.35
2023-05-05T22:30:31.726Z,85.53
2023-05-05T22:32:58.726Z,85.68
2023-05-05T22:35:25.700Z,85.53
2023-05-05T22:37:52.983Z,86.19
2023-05-05T22:40:20.144Z,86.92
2023-05-05T22:42:47.005Z,86.54
2023-05-05T22:45:14.195Z,86.84
2023-05-05T22:47:41.869Z,86.59
2023-05-05T22:50:09.342Z,86.81
2023-05-05T22:52:36.670Z,87.13
2023-05-05T22:55:04.338Z,87.13
2023-05-05T22:57:31.458Z,86.92
2023-05-05T22:59:58.355Z,86.69
2023-05-05T23:02:26.859Z,86.06
2023-05-05T23:04:54.377Z,86.02
2023-05-05T23:07:21.263Z,86.37
2023-05-05T23:09:48.262Z,86.99
2023-05-05T23:12:15.180Z,87.09
2023-05-05T23:14:42.085Z,86.73
2023-05-05T23:17:09.348Z,86.31
2023-05-05T23:19:36.810Z,86.51
2023-05-05T23:22:04.092Z,87.02
2023-05-05T23:24:31.136Z,86.94
2023-05-05T23:26:59.730Z,87.05
2023-05-05T23:29:26.894Z,87.21
2023-05-05T23:31:54.146Z,87.61
2023-05-05T23:34:21.083Z,87.63
2023-05-05T23:36:47.992Z,88.25
2023-05-05T23:39:14.912Z,88.36
2023-05-05T23:41:41.896Z,88.23
2023-05-05T23:44:08.821Z,88.68
2023-05-05T23:46:36.109Z,88.83
2023-05-05T23:49:03.228Z,88.95
2023-05-05T23:51:30.089Z,88.96
2023-05-05T23:53:57.420Z,88.83
2023-05-05T23:56:24.802Z,89.08
2023-05-05T23:58:52.530Z,89.56
